sensor_id;sensor_type;location;lat;lon;timestamp;P1;durP1;ratioP1;P2;durP2;ratioP2
8986;SDS011;4529;51.360;12.474;2023-06-14T00:02:54;2.50;;;2.30;;
8986;SDS011;4529;51.360;12.474;2023-06-14T00:07:57;2.60;;;2.40;;
8986;SDS011;4529;51.360;12.474;2023-06-14T00:13:06;3.60;;;2.23;;
8986;SDS011;4529;51.360;12.474;2023-06-14T00:18:10;2.50;;;2.30;;
8986;SDS011;4529;51.360;12.474;2023-06-14T00:23:14;2.60;;;2.40;;
8986;SDS011;4529;51.360;12.474;2023-06-14T00:28:18;3.80;;;2.23;;
8986;SDS011;4529;51.360;12.474;2023-06-14T00:33:22;3.60;;;2.30;;
8986;SDS011;4529;51.360;12.474;2023-06-14T00:38:26;2.80;;;2.60;;
8986;SDS011;4529;51.360;12.474;2023-06-14T00:43:30;2.80;;;2.60;;
8986;SDS011;4529;51.360;12.474;2023-06-14T00:48:35;3.43;;;2.60;;
8986;SDS011;4529;51.360;12.474;2023-06-14T00:53:38;4.23;;;2.60;;
8986;SDS011;4529;51.360;12.474;2023-06-14T00:58:43;2.83;;;2.63;;
8986;SDS011;4529;51.360;12.474;2023-06-14T01:03:47;4.20;;;2.70;;
8986;SDS011;4529;51.360;12.474;2023-06-14T01:08:51;2.90;;;2.70;;
8986;SDS011;4529;51.360;12.474;2023-06-14T01:14:03;3.13;;;2.83;;
8986;SDS011;4529;51.360;12.474;2023-06-14T01:19:07;3.00;;;2.80;;
8986;SDS011;4529;51.360;12.474;2023-06-14T01:24:10;3.97;;;2.93;;
8986;SDS011;4529;51.360;12.474;2023-06-14T01:29:13;3.30;;;3.00;;
8986;SDS011;4529;51.360;12.474;2023-06-14T01:34:17;3.43;;;2.80;;
8986;SDS011;4529;51.360;12.474;2023-06-14T01:39:20;3.20;;;2.90;;
8986;SDS011;4529;51.360;12.474;2023-06-14T01:44:24;3.73;;;3.17;;
8986;SDS011;4529;51.360;12.474;2023-06-14T01:49:27;2.87;;;2.67;;
8986;SDS011;4529;51.360;12.474;2023-06-14T01:54:31;6.87;;;2.70;;
8986;SDS011;4529;51.360;12.474;2023-06-14T01:59:34;3.37;;;2.93;;
8986;SDS011;4529;51.360;12.474;2023-06-14T02:04:38;3.30;;;3.00;;
8986;SDS011;4529;51.360;12.474;2023-06-14T02:09:41;3.10;;;2.57;;
8986;SDS011;4529;51.360;12.474;2023-06-14T02:14:45;3.17;;;2.50;;
8986;SDS011;4529;51.360;12.474;2023-06-14T02:19:48;2.80;;;2.50;;
8986;SDS011;4529;51.360;12.474;2023-06-14T02:24:52;3.70;;;2.70;;
8986;SDS011;4529;51.360;12.474;2023-06-14T02:29:55;3.37;;;2.50;;
8986;SDS011;4529;51.360;12.474;2023-06-14T02:34:58;2.60;;;2.40;;
8986;SDS011;4529;51.360;12.474;2023-06-14T02:40:02;3.37;;;2.80;;
8986;SDS011;4529;51.360;12.474;2023-06-14T02:45:06;2.60;;;2.40;;
8986;SDS011;4529;51.360;12.474;2023-06-14T02:50:09;3.47;;;2.80;;
8986;SDS011;4529;51.360;12.474;2023-06-14T02:55:13;2.90;;;2.60;;
8986;SDS011;4529;51.360;12.474;2023-06-14T03:00:16;2.53;;;2.33;;
8986;SDS011;4529;51.360;12.474;2023-06-14T03:05:20;2.73;;;2.53;;
8986;SDS011;4529;51.360;12.474;2023-06-14T03:10:23;3.63;;;2.57;;
8986;SDS011;4529;51.360;12.474;2023-06-14T03:15:27;3.10;;;2.60;;
8986;SDS011;4529;51.360;12.474;2023-06-14T03:20:30;3.20;;;2.60;;
8986;SDS011;4529;51.360;12.474;2023-06-14T03:25:33;2.80;;;2.50;;
8986;SDS011;4529;51.360;12.474;2023-06-14T03:30:37;3.00;;;2.80;;
8986;SDS011;4529;51.360;12.474;2023-06-14T03:35:40;2.80;;;2.60;;
8986;SDS011;4529;51.360;12.474;2023-06-14T03:40:44;2.93;;;2.63;;
8986;SDS011;4529;51.360;12.474;2023-06-14T03:45:47;2.60;;;2.40;;
8986;SDS011;4529;51.360;12.474;2023-06-14T03:50:51;2.63;;;2.43;;
8986;SDS011;4529;51.360;12.474;2023-06-14T03:55:54;2.90;;;2.70;;
8986;SDS011;4529;51.360;12.474;2023-06-14T04:00:58;2.67;;;2.47;;
8986;SDS011;4529;51.360;12.474;2023-06-14T04:06:01;2.70;;;2.47;;
8986;SDS011;4529;51.360;12.474;2023-06-14T04:11:05;2.53;;;2.33;;
8986;SDS011;4529;51.360;12.474;2023-06-14T04:16:08;3.43;;;2.80;;
8986;SDS011;4529;51.360;12.474;2023-06-14T04:21:12;3.97;;;2.70;;
8986;SDS011;4529;51.360;12.474;2023-06-14T04:26:15;2.73;;;2.53;;
8986;SDS011;4529;51.360;12.474;2023-06-14T04:31:18;3.13;;;2.83;;
8986;SDS011;4529;51.360;12.474;2023-06-14T04:36:22;4.40;;;2.73;;
8986;SDS011;4529;51.360;12.474;2023-06-14T04:41:30;4.73;;;3.10;;
8986;SDS011;4529;51.360;12.474;2023-06-14T04:46:34;2.83;;;2.63;;
8986;SDS011;4529;51.360;12.474;2023-06-14T04:51:37;3.70;;;2.93;;
8986;SDS011;4529;51.360;12.474;2023-06-14T04:56:41;3.03;;;2.83;;
8986;SDS011;4529;51.360;12.474;2023-06-14T05:01:44;3.53;;;3.23;;
8986;SDS011;4529;51.360;12.474;2023-06-14T05:06:48;3.50;;;3.20;;
8986;SDS011;4529;51.360;12.474;2023-06-14T05:11:51;3.50;;;3.20;;
8986;SDS011;4529;51.360;12.474;2023-06-14T05:16:55;3.20;;;3.00;;
8986;SDS011;4529;51.360;12.474;2023-06-14T05:21:58;3.90;;;3.60;;
8986;SDS011;4529;51.360;12.474;2023-06-14T05:27:01;4.13;;;3.60;;
8986;SDS011;4529;51.360;12.474;2023-06-14T05:32:05;3.80;;;3.50;;
8986;SDS011;4529;51.360;12.474;2023-06-14T05:37:08;3.90;;;3.60;;
8986;SDS011;4529;51.360;12.474;2023-06-14T05:42:12;3.80;;;3.50;;
8986;SDS011;4529;51.360;12.474;2023-06-14T05:47:15;4.70;;;3.80;;
8986;SDS011;4529;51.360;12.474;2023-06-14T05:52:19;4.30;;;3.97;;
8986;SDS011;4529;51.360;12.474;2023-06-14T05:57:22;4.07;;;3.67;;
8986;SDS011;4529;51.360;12.474;2023-06-14T06:02:26;4.83;;;4.30;;
8986;SDS011;4529;51.360;12.474;2023-06-14T06:07:29;4.00;;;3.63;;
8986;SDS011;4529;51.360;12.474;2023-06-14T06:12:33;5.70;;;4.13;;
8986;SDS011;4529;51.360;12.474;2023-06-14T06:17:36;5.30;;;4.00;;
8986;SDS011;4529;51.360;12.474;2023-06-14T06:22:40;5.43;;;3.60;;
8986;SDS011;4529;51.360;12.474;2023-06-14T06:27:43;4.17;;;3.57;;
8986;SDS011;4529;51.360;12.474;2023-06-14T06:32:47;3.93;;;3.60;;
8986;SDS011;4529;51.360;12.474;2023-06-14T06:37:50;3.90;;;3.60;;
8986;SDS011;4529;51.360;12.474;2023-06-14T06:42:53;4.60;;;3.90;;
8986;SDS011;4529;51.360;12.474;2023-06-14T06:47:57;5.90;;;3.77;;
8986;SDS011;4529;51.360;12.474;2023-06-14T06:53:00;4.57;;;4.13;;
8986;SDS011;4529;51.360;12.474;2023-06-14T06:58:04;3.93;;;3.63;;
8986;SDS011;4529;51.360;12.474;2023-06-14T07:03:07;4.43;;;3.77;;
8986;SDS011;4529;51.360;12.474;2023-06-14T07:08:11;3.90;;;3.57;;
8986;SDS011;4529;51.360;12.474;2023-06-14T07:13:14;4.70;;;3.50;;
8986;SDS011;4529;51.360;12.474;2023-06-14T07:18:18;4.03;;;3.63;;
8986;SDS011;4529;51.360;12.474;2023-06-14T07:23:21;3.63;;;3.33;;
8986;SDS011;4529;51.360;12.474;2023-06-14T07:28:25;4.03;;;3.63;;
8986;SDS011;4529;51.360;12.474;2023-06-14T07:33:28;3.80;;;3.50;;
8986;SDS011;4529;51.360;12.474;2023-06-14T07:38:32;3.97;;;3.50;;
8986;SDS011;4529;51.360;12.474;2023-06-14T07:43:40;3.90;;;3.43;;
8986;SDS011;4529;51.360;12.474;2023-06-14T07:48:43;4.23;;;3.53;;
8986;SDS011;4529;51.360;12.474;2023-06-14T07:53:47;3.63;;;3.33;;
8986;SDS011;4529;51.360;12.474;2023-06-14T07:58:50;4.60;;;3.83;;
8986;SDS011;4529;51.360;12.474;2023-06-14T08:03:54;4.33;;;3.80;;
8986;SDS011;4529;51.360;12.474;2023-06-14T08:09:00;3.47;;;3.23;;
8986;SDS011;4529;51.360;12.474;2023-06-14T08:14:04;4.20;;;3.80;;
8986;SDS011;4529;51.360;12.474;2023-06-14T08:19:08;3.80;;;3.50;;
8986;SDS011;4529;51.360;12.474;2023-06-14T08:24:12;3.97;;;3.57;;
8986;SDS011;4529;51.360;12.474;2023-06-14T08:29:17;3.90;;;3.60;;
8986;SDS011;4529;51.360;12.474;2023-06-14T08:34:21;4.10;;;3.70;;
8986;SDS011;4529;51.360;12.474;2023-06-14T08:39:25;4.67;;;3.77;;
8986;SDS011;4529;51.360;12.474;2023-06-14T08:44:29;3.50;;;3.23;;
8986;SDS011;4529;51.360;12.474;2023-06-14T08:49:33;3.73;;;3.43;;
8986;SDS011;4529;51.360;12.474;2023-06-14T08:54:37;4.03;;;3.73;;
8986;SDS011;4529;51.360;12.474;2023-06-14T08:59:44;3.63;;;3.33;;
8986;SDS011;4529;51.360;12.474;2023-06-14T09:04:46;3.57;;;3.27;;
8986;SDS011;4529;51.360;12.474;2023-06-14T09:09:50;3.17;;;2.90;;
8986;SDS011;4529;51.360;12.474;2023-06-14T09:14:53;3.17;;;2.97;;
8986;SDS011;4529;51.360;12.474;2023-06-14T09:19:57;4.83;;;2.70;;
8986;SDS011;4529;51.360;12.474;2023-06-14T09:25:00;3.03;;;2.80;;
8986;SDS011;4529;51.360;12.474;2023-06-14T09:30:04;3.00;;;2.70;;
8986;SDS011;4529;51.360;12.474;2023-06-14T09:35:07;2.87;;;2.67;;
8986;SDS011;4529;51.360;12.474;2023-06-14T09:40:11;3.10;;;2.80;;
8986;SDS011;4529;51.360;12.474;2023-06-14T09:45:14;2.70;;;2.50;;
8986;SDS011;4529;51.360;12.474;2023-06-14T09:50:18;3.00;;;2.80;;
8986;SDS011;4529;51.360;12.474;2023-06-14T09:55:21;2.70;;;2.50;;
8986;SDS011;4529;51.360;12.474;2023-06-14T10:00:24;2.83;;;2.63;;
8986;SDS011;4529;51.360;12.474;2023-06-14T10:05:28;2.70;;;2.50;;
8986;SDS011;4529;51.360;12.474;2023-06-14T10:10:34;3.00;;;2.70;;
8986;SDS011;4529;51.360;12.474;2023-06-14T10:26:34;3.20;;;2.90;;
8986;SDS011;4529;51.360;12.474;2023-06-14T10:31:41;4.27;;;2.73;;
8986;SDS011;4529;51.360;12.474;2023-06-14T10:36:47;2.70;;;2.50;;
8986;SDS011;4529;51.360;12.474;2023-06-14T10:41:52;4.33;;;2.60;;
8986;SDS011;4529;51.360;12.474;2023-06-14T10:47:00;2.90;;;2.70;;
8986;SDS011;4529;51.360;12.474;2023-06-14T10:52:03;2.53;;;2.33;;
8986;SDS011;4529;51.360;12.474;2023-06-14T10:57:07;2.50;;;2.40;;
8986;SDS011;4529;51.360;12.474;2023-06-14T11:02:27;2.33;;;2.23;;
8986;SDS011;4529;51.360;12.474;2023-06-14T11:13:26;2.73;;;2.60;;
8986;SDS011;4529;51.360;12.474;2023-06-14T11:18:30;2.80;;;2.60;;
8986;SDS011;4529;51.360;12.474;2023-06-14T11:23:33;2.93;;;2.73;;
8986;SDS011;4529;51.360;12.474;2023-06-14T11:28:37;3.00;;;2.80;;
8986;SDS011;4529;51.360;12.474;2023-06-14T11:33:40;2.73;;;2.53;;
8986;SDS011;4529;51.360;12.474;2023-06-14T11:38:43;2.57;;;2.37;;
8986;SDS011;4529;51.360;12.474;2023-06-14T11:43:47;2.77;;;2.57;;
8986;SDS011;4529;51.360;12.474;2023-06-14T11:48:51;2.87;;;2.63;;
8986;SDS011;4529;51.360;12.474;2023-06-14T11:53:55;2.90;;;2.70;;
8986;SDS011;4529;51.360;12.474;2023-06-14T11:58:59;2.93;;;2.73;;
8986;SDS011;4529;51.360;12.474;2023-06-14T12:04:04;2.70;;;2.60;;
8986;SDS011;4529;51.360;12.474;2023-06-14T12:09:08;2.80;;;2.60;;
8986;SDS011;4529;51.360;12.474;2023-06-14T12:14:12;3.00;;;2.80;;
8986;SDS011;4529;51.360;12.474;2023-06-14T12:19:16;3.10;;;2.80;;
8986;SDS011;4529;51.360;12.474;2023-06-14T12:24:20;5.30;;;2.80;;
8986;SDS011;4529;51.360;12.474;2023-06-14T12:29:24;3.00;;;2.80;;
8986;SDS011;4529;51.360;12.474;2023-06-14T12:34:28;3.10;;;2.90;;
8986;SDS011;4529;51.360;12.474;2023-06-14T12:39:33;3.27;;;3.00;;
8986;SDS011;4529;51.360;12.474;2023-06-14T12:44:37;2.90;;;2.70;;
8986;SDS011;4529;51.360;12.474;2023-06-14T12:49:41;3.00;;;2.80;;
8986;SDS011;4529;51.360;12.474;2023-06-14T12:54:45;2.97;;;2.67;;
8986;SDS011;4529;51.360;12.474;2023-06-14T12:59:49;2.80;;;2.60;;
8986;SDS011;4529;51.360;12.474;2023-06-14T13:04:53;3.00;;;2.80;;
8986;SDS011;4529;51.360;12.474;2023-06-14T13:09:57;2.90;;;2.60;;
8986;SDS011;4529;51.360;12.474;2023-06-14T13:15:00;4.73;;;2.87;;
8986;SDS011;4529;51.360;12.474;2023-06-14T13:20:04;3.20;;;2.90;;
8986;SDS011;4529;51.360;12.474;2023-06-14T13:25:10;3.40;;;3.10;;
8986;SDS011;4529;51.360;12.474;2023-06-14T13:30:14;3.37;;;3.10;;
8986;SDS011;4529;51.360;12.474;2023-06-14T13:35:19;3.00;;;2.80;;
8986;SDS011;4529;51.360;12.474;2023-06-14T13:40:22;3.57;;;3.27;;
8986;SDS011;4529;51.360;12.474;2023-06-14T13:45:27;3.60;;;3.30;;
8986;SDS011;4529;51.360;12.474;2023-06-14T13:50:31;3.70;;;3.40;;
8986;SDS011;4529;51.360;12.474;2023-06-14T13:55:35;3.77;;;3.47;;
8986;SDS011;4529;51.360;12.474;2023-06-14T14:00:39;3.70;;;3.40;;
8986;SDS011;4529;51.360;12.474;2023-06-14T14:05:43;3.70;;;3.40;;
8986;SDS011;4529;51.360;12.474;2023-06-14T14:10:47;3.10;;;2.90;;
8986;SDS011;4529;51.360;12.474;2023-06-14T14:15:51;3.23;;;2.93;;
8986;SDS011;4529;51.360;12.474;2023-06-14T14:20:55;3.10;;;2.90;;
8986;SDS011;4529;51.360;12.474;2023-06-14T14:25:59;2.90;;;2.70;;
8986;SDS011;4529;51.360;12.474;2023-06-14T14:31:02;3.10;;;2.90;;
8986;SDS011;4529;51.360;12.474;2023-06-14T14:36:06;3.13;;;2.93;;
8986;SDS011;4529;51.360;12.474;2023-06-14T14:41:10;3.27;;;2.80;;
8986;SDS011;4529;51.360;12.474;2023-06-14T14:46:14;2.90;;;2.70;;
8986;SDS011;4529;51.360;12.474;2023-06-14T14:51:18;3.20;;;3.00;;
8986;SDS011;4529;51.360;12.474;2023-06-14T14:56:22;3.20;;;2.90;;
8986;SDS011;4529;51.360;12.474;2023-06-14T15:01:27;3.20;;;3.00;;
8986;SDS011;4529;51.360;12.474;2023-06-14T15:06:31;4.83;;;3.13;;
8986;SDS011;4529;51.360;12.474;2023-06-14T15:11:38;3.20;;;2.90;;
8986;SDS011;4529;51.360;12.474;2023-06-14T15:16:41;3.07;;;2.87;;
8986;SDS011;4529;51.360;12.474;2023-06-14T15:21:45;3.03;;;2.83;;
8986;SDS011;4529;51.360;12.474;2023-06-14T15:26:48;3.10;;;2.90;;
8986;SDS011;4529;51.360;12.474;2023-06-14T15:31:52;3.10;;;2.90;;
8986;SDS011;4529;51.360;12.474;2023-06-14T15:36:55;3.83;;;3.07;;
8986;SDS011;4529;51.360;12.474;2023-06-14T15:41:59;3.83;;;3.33;;
8986;SDS011;4529;51.360;12.474;2023-06-14T15:47:02;3.13;;;2.93;;
8986;SDS011;4529;51.360;12.474;2023-06-14T15:52:06;4.20;;;3.17;;
8986;SDS011;4529;51.360;12.474;2023-06-14T15:57:09;3.20;;;3.00;;
8986;SDS011;4529;51.360;12.474;2023-06-14T16:02:13;3.73;;;2.90;;
8986;SDS011;4529;51.360;12.474;2023-06-14T16:07:16;3.50;;;3.20;;
8986;SDS011;4529;51.360;12.474;2023-06-14T16:12:20;3.30;;;3.00;;
8986;SDS011;4529;51.360;12.474;2023-06-14T16:17:23;3.50;;;3.20;;
8986;SDS011;4529;51.360;12.474;2023-06-14T16:22:27;4.03;;;3.07;;
8986;SDS011;4529;51.360;12.474;2023-06-14T16:27:31;4.00;;;3.47;;
8986;SDS011;4529;51.360;12.474;2023-06-14T16:32:34;3.40;;;3.10;;
8986;SDS011;4529;51.360;12.474;2023-06-14T16:37:38;3.40;;;3.10;;
8986;SDS011;4529;51.360;12.474;2023-06-14T16:42:41;4.03;;;3.30;;
8986;SDS011;4529;51.360;12.474;2023-06-14T16:47:45;3.63;;;3.23;;
8986;SDS011;4529;51.360;12.474;2023-06-14T16:52:48;5.60;;;3.07;;
8986;SDS011;4529;51.360;12.474;2023-06-14T16:57:52;4.77;;;3.10;;
8986;SDS011;4529;51.360;12.474;2023-06-14T17:02:55;3.50;;;3.20;;
8986;SDS011;4529;51.360;12.474;2023-06-14T17:07:59;5.07;;;2.90;;
8986;SDS011;4529;51.360;12.474;2023-06-14T17:13:02;4.80;;;3.27;;
8986;SDS011;4529;51.360;12.474;2023-06-14T17:18:06;3.10;;;2.80;;
8986;SDS011;4529;51.360;12.474;2023-06-14T17:23:09;3.40;;;3.10;;
8986;SDS011;4529;51.360;12.474;2023-06-14T17:28:12;3.57;;;2.80;;
8986;SDS011;4529;51.360;12.474;2023-06-14T17:33:16;3.00;;;2.80;;
8986;SDS011;4529;51.360;12.474;2023-06-14T17:38:19;3.23;;;2.90;;
8986;SDS011;4529;51.360;12.474;2023-06-14T17:43:23;2.83;;;2.63;;
8986;SDS011;4529;51.360;12.474;2023-06-14T17:48:26;4.30;;;2.90;;
8986;SDS011;4529;51.360;12.474;2023-06-14T17:53:30;3.07;;;2.87;;
8986;SDS011;4529;51.360;12.474;2023-06-14T17:58:33;6.03;;;3.00;;
8986;SDS011;4529;51.360;12.474;2023-06-14T18:03:37;4.67;;;2.90;;
8986;SDS011;4529;51.360;12.474;2023-06-14T18:08:40;2.67;;;2.47;;
8986;SDS011;4529;51.360;12.474;2023-06-14T18:13:44;5.03;;;2.97;;
8986;SDS011;4529;51.360;12.474;2023-06-14T18:18:47;3.27;;;3.00;;
8986;SDS011;4529;51.360;12.474;2023-06-14T18:23:51;3.30;;;3.00;;
8986;SDS011;4529;51.360;12.474;2023-06-14T18:28:54;3.40;;;3.20;;
8986;SDS011;4529;51.360;12.474;2023-06-14T18:33:57;3.30;;;3.00;;
8986;SDS011;4529;51.360;12.474;2023-06-14T18:39:01;3.37;;;3.07;;
8986;SDS011;4529;51.360;12.474;2023-06-14T18:44:04;3.30;;;3.03;;
8986;SDS011;4529;51.360;12.474;2023-06-14T18:49:08;5.47;;;3.07;;
8986;SDS011;4529;51.360;12.474;2023-06-14T18:54:11;4.93;;;3.00;;
8986;SDS011;4529;51.360;12.474;2023-06-14T18:59:15;3.40;;;3.10;;
8986;SDS011;4529;51.360;12.474;2023-06-14T19:04:18;3.60;;;3.30;;
8986;SDS011;4529;51.360;12.474;2023-06-14T19:09:22;3.67;;;3.30;;
8986;SDS011;4529;51.360;12.474;2023-06-14T19:14:25;3.87;;;3.00;;
8986;SDS011;4529;51.360;12.474;2023-06-14T19:19:29;3.40;;;3.10;;
8986;SDS011;4529;51.360;12.474;2023-06-14T19:24:32;3.70;;;3.20;;
8986;SDS011;4529;51.360;12.474;2023-06-14T19:29:36;5.37;;;3.07;;
8986;SDS011;4529;51.360;12.474;2023-06-14T19:34:39;4.30;;;3.10;;
8986;SDS011;4529;51.360;12.474;2023-06-14T19:39:42;3.67;;;3.23;;
8986;SDS011;4529;51.360;12.474;2023-06-14T19:44:46;4.20;;;3.47;;
8986;SDS011;4529;51.360;12.474;2023-06-14T19:49:49;3.53;;;3.10;;
8986;SDS011;4529;51.360;12.474;2023-06-14T19:54:53;4.50;;;3.17;;
8986;SDS011;4529;51.360;12.474;2023-06-14T19:59:56;3.57;;;3.27;;
8986;SDS011;4529;51.360;12.474;2023-06-14T20:05:00;4.50;;;3.40;;
8986;SDS011;4529;51.360;12.474;2023-06-14T20:10:03;5.07;;;3.30;;
8986;SDS011;4529;51.360;12.474;2023-06-14T20:15:07;4.00;;;3.70;;
8986;SDS011;4529;51.360;12.474;2023-06-14T20:20:11;4.00;;;3.70;;
8986;SDS011;4529;51.360;12.474;2023-06-14T20:25:15;3.87;;;3.40;;
8986;SDS011;4529;51.360;12.474;2023-06-14T20:30:19;4.10;;;3.70;;
8986;SDS011;4529;51.360;12.474;2023-06-14T20:35:23;4.60;;;3.47;;
8986;SDS011;4529;51.360;12.474;2023-06-14T20:40:27;3.60;;;3.30;;
8986;SDS011;4529;51.360;12.474;2023-06-14T20:45:30;4.30;;;3.90;;
8986;SDS011;4529;51.360;12.474;2023-06-14T20:50:34;4.10;;;3.70;;
8986;SDS011;4529;51.360;12.474;2023-06-14T20:55:38;4.87;;;3.87;;
8986;SDS011;4529;51.360;12.474;2023-06-14T21:00:42;4.03;;;3.73;;
8986;SDS011;4529;51.360;12.474;2023-06-14T21:05:45;4.00;;;3.70;;
8986;SDS011;4529;51.360;12.474;2023-06-14T21:10:48;5.90;;;3.93;;
8986;SDS011;4529;51.360;12.474;2023-06-14T21:15:52;5.47;;;3.63;;
8986;SDS011;4529;51.360;12.474;2023-06-14T21:20:55;4.23;;;3.83;;
8986;SDS011;4529;51.360;12.474;2023-06-14T21:25:59;7.40;;;3.70;;
8986;SDS011;4529;51.360;12.474;2023-06-14T21:31:06;6.40;;;3.67;;
8986;SDS011;4529;51.360;12.474;2023-06-14T21:36:09;5.30;;;3.40;;
8986;SDS011;4529;51.360;12.474;2023-06-14T21:41:13;3.80;;;3.50;;
8986;SDS011;4529;51.360;12.474;2023-06-14T21:46:17;3.80;;;3.50;;
8986;SDS011;4529;51.360;12.474;2023-06-14T21:51:19;4.03;;;3.70;;
8986;SDS011;4529;51.360;12.474;2023-06-14T21:56:23;5.60;;;3.70;;
8986;SDS011;4529;51.360;12.474;2023-06-14T22:01:26;3.80;;;3.50;;
8986;SDS011;4529;51.360;12.474;2023-06-14T22:06:30;3.73;;;3.43;;
8986;SDS011;4529;51.360;12.474;2023-06-14T22:11:33;4.20;;;3.90;;
8986;SDS011;4529;51.360;12.474;2023-06-14T22:16:37;3.97;;;3.67;;
8986;SDS011;4529;51.360;12.474;2023-06-14T22:21:40;4.37;;;3.60;;
8986;SDS011;4529;51.360;12.474;2023-06-14T22:26:44;4.37;;;3.87;;
8986;SDS011;4529;51.360;12.474;2023-06-14T22:31:47;3.90;;;3.57;;
8986;SDS011;4529;51.360;12.474;2023-06-14T22:36:51;4.47;;;3.90;;
8986;SDS011;4529;51.360;12.474;2023-06-14T22:41:54;4.20;;;3.80;;
8986;SDS011;4529;51.360;12.474;2023-06-14T22:46:57;7.40;;;3.73;;
8986;SDS011;4529;51.360;12.474;2023-06-14T22:52:01;4.20;;;3.90;;
8986;SDS011;4529;51.360;12.474;2023-06-14T22:57:04;4.00;;;3.63;;
8986;SDS011;4529;51.360;12.474;2023-06-14T23:02:08;4.40;;;4.00;;
8986;SDS011;4529;51.360;12.474;2023-06-14T23:07:15;4.30;;;3.90;;
8986;SDS011;4529;51.360;12.474;2023-06-14T23:12:15;4.30;;;3.90;;
8986;SDS011;4529;51.360;12.474;2023-06-14T23:17:18;4.00;;;3.70;;
8986;SDS011;4529;51.360;12.474;2023-06-14T23:22:22;3.70;;;3.40;;
8986;SDS011;4529;51.360;12.474;2023-06-14T23:27:25;4.07;;;3.77;;
8986;SDS011;4529;51.360;12.474;2023-06-14T23:32:29;6.80;;;3.77;;
8986;SDS011;4529;51.360;12.474;2023-06-14T23:37:32;3.50;;;3.30;;
8986;SDS011;4529;51.360;12.474;2023-06-14T23:42:36;4.37;;;4.03;;
8986;SDS011;4529;51.360;12.474;2023-06-14T23:47:39;3.80;;;3.50;;
8986;SDS011;4529;51.360;12.474;2023-06-14T23:52:43;3.93;;;3.63;;
8986;SDS011;4529;51.360;12.474;2023-06-14T23:57:46;4.00;;;3.67;;
